sensor_id;sensor_type;location;lat;lon;timestamp;temperature;humidity
28548;DHT22;68292;49.600;8.746;2024-01-25T00:00:04;16.10;55.60
28548;DHT22;68292;49.600;8.746;2024-01-25T00:02:34;16.10;55.60
28548;DHT22;68292;49.600;8.746;2024-01-25T00:05:03;16.10;55.60
28548;DHT22;68292;49.600;8.746;2024-01-25T00:07:33;16.10;55.60
28548;DHT22;68292;49.600;8.746;2024-01-25T00:10:01;16.10;55.60
28548;DHT22;68292;49.600;8.746;2024-01-25T00:12:36;16.10;55.60
28548;DHT22;68292;49.600;8.746;2024-01-25T00:15:05;16.10;56.30
28548;DHT22;68292;49.600;8.746;2024-01-25T00:17:34;16.10;55.60
28548;DHT22;68292;49.600;8.746;2024-01-25T00:20:04;16.10;56.30
28548;DHT22;68292;49.600;8.746;2024-01-25T00:22:34;16.10;55.70
28548;DHT22;68292;49.600;8.746;2024-01-25T00:25:03;16.10;55.60
28548;DHT22;68292;49.600;8.746;2024-01-25T00:27:32;16.10;55.70
28548;DHT22;68292;49.600;8.746;2024-01-25T00:30:03;16.10;55.70
28548;DHT22;68292;49.600;8.746;2024-01-25T00:32:32;16.10;55.60
28548;DHT22;68292;49.600;8.746;2024-01-25T00:35:02;16.10;55.60
28548;DHT22;68292;49.600;8.746;2024-01-25T00:37:32;16.10;55.60
28548;DHT22;68292;49.600;8.746;2024-01-25T00:40:02;16.10;55.70
28548;DHT22;68292;49.600;8.746;2024-01-25T00:42:33;16.10;55.70
28548;DHT22;68292;49.600;8.746;2024-01-25T00:45:07;16.10;55.70
28548;DHT22;68292;49.600;8.746;2024-01-25T00:47:37;16.10;55.60
28548;DHT22;68292;49.600;8.746;2024-01-25T00:50:07;16.10;55.70
28548;DHT22;68292;49.600;8.746;2024-01-25T00:52:37;16.10;55.70
28548;DHT22;68292;49.600;8.746;2024-01-25T00:55:07;16.10;55.70
28548;DHT22;68292;49.600;8.746;2024-01-25T00:57:37;16.10;55.70
28548;DHT22;68292;49.600;8.746;2024-01-25T01:00:09;16.20;55.80
28548;DHT22;68292;49.600;8.746;2024-01-25T01:02:41;16.10;55.70
28548;DHT22;68292;49.600;8.746;2024-01-25T01:05:12;16.10;55.70
28548;DHT22;68292;49.600;8.746;2024-01-25T01:07:43;16.10;55.70
28548;DHT22;68292;49.600;8.746;2024-01-25T01:10:13;16.10;55.60
28548;DHT22;68292;49.600;8.746;2024-01-25T01:12:42;16.10;55.60
28548;DHT22;68292;49.600;8.746;2024-01-25T01:15:12;16.10;55.60
28548;DHT22;68292;49.600;8.746;2024-01-25T01:17:41;16.10;55.60
28548;DHT22;68292;49.600;8.746;2024-01-25T01:20:10;16.10;55.50
28548;DHT22;68292;49.600;8.746;2024-01-25T01:22:40;16.10;55.50
28548;DHT22;68292;49.600;8.746;2024-01-25T01:25:09;16.10;55.50
28548;DHT22;68292;49.600;8.746;2024-01-25T01:27:37;16.10;55.50
28548;DHT22;68292;49.600;8.746;2024-01-25T01:30:07;16.10;55.50
28548;DHT22;68292;49.600;8.746;2024-01-25T01:32:38;16.10;55.50
28548;DHT22;68292;49.600;8.746;2024-01-25T01:35:07;16.10;55.40
28548;DHT22;68292;49.600;8.746;2024-01-25T01:37:36;16.10;55.40
28548;DHT22;68292;49.600;8.746;2024-01-25T01:40:06;16.10;55.40
28548;DHT22;68292;49.600;8.746;2024-01-25T01:42:36;16.10;55.40
28548;DHT22;68292;49.600;8.746;2024-01-25T01:45:06;16.00;55.40
28548;DHT22;68292;49.600;8.746;2024-01-25T01:47:35;16.00;55.40
28548;DHT22;68292;49.600;8.746;2024-01-25T01:50:06;16.00;55.50
28548;DHT22;68292;49.600;8.746;2024-01-25T01:52:36;16.00;55.40
28548;DHT22;68292;49.600;8.746;2024-01-25T01:55:06;16.00;55.50
28548;DHT22;68292;49.600;8.746;2024-01-25T01:57:36;16.00;55.50
28548;DHT22;68292;49.600;8.746;2024-01-25T02:00:08;16.00;55.50
28548;DHT22;68292;49.600;8.746;2024-01-25T02:02:40;16.00;55.40
28548;DHT22;68292;49.600;8.746;2024-01-25T02:05:10;16.00;55.50
28548;DHT22;68292;49.600;8.746;2024-01-25T02:07:40;16.00;55.50
28548;DHT22;68292;49.600;8.746;2024-01-25T02:10:11;16.00;55.50
28548;DHT22;68292;49.600;8.746;2024-01-25T02:12:40;16.00;55.50
28548;DHT22;68292;49.600;8.746;2024-01-25T02:15:09;16.00;55.50
28548;DHT22;68292;49.600;8.746;2024-01-25T02:17:38;15.90;55.50
28548;DHT22;68292;49.600;8.746;2024-01-25T02:20:10;15.90;55.60
28548;DHT22;68292;49.600;8.746;2024-01-25T02:22:40;15.90;55.60
28548;DHT22;68292;49.600;8.746;2024-01-25T02:25:09;15.90;55.50
28548;DHT22;68292;49.600;8.746;2024-01-25T02:27:38;15.90;55.50
28548;DHT22;68292;49.600;8.746;2024-01-25T02:30:08;15.90;55.50
28548;DHT22;68292;49.600;8.746;2024-01-25T02:32:37;15.90;55.50
28548;DHT22;68292;49.600;8.746;2024-01-25T02:35:06;15.90;55.40
28548;DHT22;68292;49.600;8.746;2024-01-25T02:37:35;15.90;55.50
28548;DHT22;68292;49.600;8.746;2024-01-25T02:40:07;15.90;55.50
28548;DHT22;68292;49.600;8.746;2024-01-25T02:42:36;15.90;55.40
28548;DHT22;68292;49.600;8.746;2024-01-25T02:45:04;15.90;55.50
28548;DHT22;68292;49.600;8.746;2024-01-25T02:47:33;15.90;55.40
28548;DHT22;68292;49.600;8.746;2024-01-25T02:50:02;15.90;55.40
28548;DHT22;68292;49.600;8.746;2024-01-25T02:52:32;15.90;55.30
28548;DHT22;68292;49.600;8.746;2024-01-25T02:55:01;15.90;55.30
28548;DHT22;68292;49.600;8.746;2024-01-25T02:57:31;15.90;55.20
28548;DHT22;68292;49.600;8.746;2024-01-25T03:00:01;15.80;55.20
28548;DHT22;68292;49.600;8.746;2024-01-25T03:02:30;15.80;55.20
28548;DHT22;68292;49.600;8.746;2024-01-25T03:04:59;15.80;55.20
28548;DHT22;68292;49.600;8.746;2024-01-25T03:07:28;15.80;55.10
28548;DHT22;68292;49.600;8.746;2024-01-25T03:09:56;15.80;55.10
28548;DHT22;68292;49.600;8.746;2024-01-25T03:12:25;15.80;55.10
28548;DHT22;68292;49.600;8.746;2024-01-25T03:14:56;15.80;55.00
28548;DHT22;68292;49.600;8.746;2024-01-25T03:17:24;15.80;55.00
28548;DHT22;68292;49.600;8.746;2024-01-25T03:19:54;15.80;55.00
28548;DHT22;68292;49.600;8.746;2024-01-25T03:22:23;15.80;55.00
28548;DHT22;68292;49.600;8.746;2024-01-25T03:24:51;15.80;55.00
28548;DHT22;68292;49.600;8.746;2024-01-25T03:27:20;15.80;54.90
28548;DHT22;68292;49.600;8.746;2024-01-25T03:29:49;15.70;54.80
28548;DHT22;68292;49.600;8.746;2024-01-25T03:32:19;15.70;54.80
28548;DHT22;68292;49.600;8.746;2024-01-25T03:34:48;15.70;54.80
28548;DHT22;68292;49.600;8.746;2024-01-25T03:37:17;15.70;54.80
28548;DHT22;68292;49.600;8.746;2024-01-25T03:39:46;15.70;54.90
28548;DHT22;68292;49.600;8.746;2024-01-25T03:42:15;15.70;54.90
28548;DHT22;68292;49.600;8.746;2024-01-25T03:44:43;15.70;54.90
28548;DHT22;68292;49.600;8.746;2024-01-25T03:47:13;15.70;54.80
28548;DHT22;68292;49.600;8.746;2024-01-25T03:49:43;15.70;54.90
28548;DHT22;68292;49.600;8.746;2024-01-25T03:52:12;15.70;54.80
28548;DHT22;68292;49.600;8.746;2024-01-25T03:54:41;15.70;54.90
28548;DHT22;68292;49.600;8.746;2024-01-25T03:57:10;15.70;54.80
28548;DHT22;68292;49.600;8.746;2024-01-25T03:59:39;15.70;54.80
28548;DHT22;68292;49.600;8.746;2024-01-25T04:02:08;15.70;54.80
28548;DHT22;68292;49.600;8.746;2024-01-25T04:04:38;15.70;54.70
28548;DHT22;68292;49.600;8.746;2024-01-25T04:07:08;15.70;54.70
28548;DHT22;68292;49.600;8.746;2024-01-25T04:09:37;15.70;54.60
28548;DHT22;68292;49.600;8.746;2024-01-25T04:12:07;15.70;54.60
28548;DHT22;68292;49.600;8.746;2024-01-25T04:14:36;15.60;54.50
28548;DHT22;68292;49.600;8.746;2024-01-25T04:17:05;15.60;54.50
28548;DHT22;68292;49.600;8.746;2024-01-25T04:19:36;15.60;54.50
28548;DHT22;68292;49.600;8.746;2024-01-25T04:22:04;15.60;54.40
28548;DHT22;68292;49.600;8.746;2024-01-25T04:24:35;15.60;54.50
28548;DHT22;68292;49.600;8.746;2024-01-25T04:27:04;15.60;54.40
28548;DHT22;68292;49.600;8.746;2024-01-25T04:29:33;15.60;54.50
28548;DHT22;68292;49.600;8.746;2024-01-25T04:32:02;15.60;54.50
28548;DHT22;68292;49.600;8.746;2024-01-25T04:34:30;15.60;54.50
28548;DHT22;68292;49.600;8.746;2024-01-25T04:36:59;15.60;54.40
28548;DHT22;68292;49.600;8.746;2024-01-25T04:39:29;15.60;54.40
28548;DHT22;68292;49.600;8.746;2024-01-25T04:41:59;15.60;54.40
28548;DHT22;68292;49.600;8.746;2024-01-25T04:44:27;15.60;54.40
28548;DHT22;68292;49.600;8.746;2024-01-25T04:46:57;15.60;54.50
28548;DHT22;68292;49.600;8.746;2024-01-25T04:49:26;15.60;54.40
28548;DHT22;68292;49.600;8.746;2024-01-25T04:51:55;15.60;54.50
28548;DHT22;68292;49.600;8.746;2024-01-25T04:54:24;15.60;54.40
28548;DHT22;68292;49.600;8.746;2024-01-25T04:56:52;15.60;54.40
28548;DHT22;68292;49.600;8.746;2024-01-25T04:59:23;15.60;54.50
28548;DHT22;68292;49.600;8.746;2024-01-25T05:01:53;15.60;54.50
28548;DHT22;68292;49.600;8.746;2024-01-25T05:04:25;15.60;54.50
28548;DHT22;68292;49.600;8.746;2024-01-25T05:06:54;15.60;54.50
28548;DHT22;68292;49.600;8.746;2024-01-25T05:09:24;15.60;54.50
28548;DHT22;68292;49.600;8.746;2024-01-25T05:11:52;15.60;54.40
28548;DHT22;68292;49.600;8.746;2024-01-25T05:14:26;15.60;54.40
28548;DHT22;68292;49.600;8.746;2024-01-25T05:16:55;15.60;54.30
28548;DHT22;68292;49.600;8.746;2024-01-25T05:19:24;15.50;54.30
28548;DHT22;68292;49.600;8.746;2024-01-25T05:21:53;15.50;54.30
28548;DHT22;68292;49.600;8.746;2024-01-25T05:24:22;15.50;54.30
28548;DHT22;68292;49.600;8.746;2024-01-25T05:26:51;15.50;54.20
28548;DHT22;68292;49.600;8.746;2024-01-25T05:29:20;15.50;54.20
28548;DHT22;68292;49.600;8.746;2024-01-25T05:31:50;15.50;54.20
28548;DHT22;68292;49.600;8.746;2024-01-25T05:34:19;15.50;54.10
28548;DHT22;68292;49.600;8.746;2024-01-25T05:36:48;15.50;54.10
28548;DHT22;68292;49.600;8.746;2024-01-25T05:39:17;15.40;54.10
28548;DHT22;68292;49.600;8.746;2024-01-25T05:41:45;15.40;54.10
28548;DHT22;68292;49.600;8.746;2024-01-25T05:44:14;15.40;54.10
28548;DHT22;68292;49.600;8.746;2024-01-25T05:46:43;15.40;54.00
28548;DHT22;68292;49.600;8.746;2024-01-25T05:49:13;15.40;54.00
28548;DHT22;68292;49.600;8.746;2024-01-25T05:51:42;15.40;53.90
28548;DHT22;68292;49.600;8.746;2024-01-25T05:54:11;15.40;53.90
28548;DHT22;68292;49.600;8.746;2024-01-25T05:56:39;15.30;53.80
28548;DHT22;68292;49.600;8.746;2024-01-25T05:59:08;15.30;53.80
28548;DHT22;68292;49.600;8.746;2024-01-25T06:01:37;15.30;53.90
28548;DHT22;68292;49.600;8.746;2024-01-25T06:04:06;15.30;53.90
28548;DHT22;68292;49.600;8.746;2024-01-25T06:06:36;15.30;54.00
28548;DHT22;68292;49.600;8.746;2024-01-25T06:09:05;15.20;54.10
28548;DHT22;68292;49.600;8.746;2024-01-25T06:11:39;15.20;54.20
28548;DHT22;68292;49.600;8.746;2024-01-25T06:14:09;15.20;54.30
28548;DHT22;68292;49.600;8.746;2024-01-25T06:16:38;15.20;54.40
28548;DHT22;68292;49.600;8.746;2024-01-25T06:19:06;15.20;54.50
28548;DHT22;68292;49.600;8.746;2024-01-25T06:21:37;15.20;54.50
28548;DHT22;68292;49.600;8.746;2024-01-25T06:24:06;15.20;54.50
28548;DHT22;68292;49.600;8.746;2024-01-25T06:26:35;15.20;54.60
28548;DHT22;68292;49.600;8.746;2024-01-25T06:29:04;15.20;54.60
28548;DHT22;68292;49.600;8.746;2024-01-25T06:31:33;15.20;54.60
28548;DHT22;68292;49.600;8.746;2024-01-25T06:34:09;15.20;54.70
28548;DHT22;68292;49.600;8.746;2024-01-25T06:36:41;15.30;54.80
28548;DHT22;68292;49.600;8.746;2024-01-25T06:39:09;15.30;54.80
28548;DHT22;68292;49.600;8.746;2024-01-25T06:41:38;15.30;54.70
28548;DHT22;68292;49.600;8.746;2024-01-25T06:44:07;15.30;54.80
28548;DHT22;68292;49.600;8.746;2024-01-25T06:46:36;15.30;54.80
28548;DHT22;68292;49.600;8.746;2024-01-25T06:49:04;15.30;54.70
28548;DHT22;68292;49.600;8.746;2024-01-25T06:51:34;15.30;54.80
28548;DHT22;68292;49.600;8.746;2024-01-25T06:54:04;15.30;54.80
28548;DHT22;68292;49.600;8.746;2024-01-25T06:56:34;15.30;54.70
28548;DHT22;68292;49.600;8.746;2024-01-25T06:59:02;15.30;54.70
28548;DHT22;68292;49.600;8.746;2024-01-25T07:01:31;15.30;54.70
28548;DHT22;68292;49.600;8.746;2024-01-25T07:04:00;15.30;54.70
28548;DHT22;68292;49.600;8.746;2024-01-25T07:06:31;15.30;54.70
28548;DHT22;68292;49.600;8.746;2024-01-25T07:09:00;15.30;54.70
28548;DHT22;68292;49.600;8.746;2024-01-25T07:11:31;15.30;54.70
28548;DHT22;68292;49.600;8.746;2024-01-25T07:13:59;15.30;54.70
28548;DHT22;68292;49.600;8.746;2024-01-25T07:16:28;15.30;54.70
28548;DHT22;68292;49.600;8.746;2024-01-25T07:18:57;15.30;54.70
28548;DHT22;68292;49.600;8.746;2024-01-25T07:21:26;15.30;54.70
28548;DHT22;68292;49.600;8.746;2024-01-25T07:23:55;15.30;54.80
28548;DHT22;68292;49.600;8.746;2024-01-25T07:26:24;15.30;54.80
28548;DHT22;68292;49.600;8.746;2024-01-25T07:28:54;15.30;54.80
28548;DHT22;68292;49.600;8.746;2024-01-25T07:31:25;15.30;54.80
28548;DHT22;68292;49.600;8.746;2024-01-25T07:33:55;15.30;54.80
28548;DHT22;68292;49.600;8.746;2024-01-25T07:36:24;15.30;54.80
28548;DHT22;68292;49.600;8.746;2024-01-25T07:38:53;15.30;54.80
28548;DHT22;68292;49.600;8.746;2024-01-25T07:41:21;15.30;54.80
28548;DHT22;68292;49.600;8.746;2024-01-25T07:43:50;15.30;54.80
28548;DHT22;68292;49.600;8.746;2024-01-25T07:46:23;15.30;54.80
28548;DHT22;68292;49.600;8.746;2024-01-25T07:48:53;15.30;54.80
28548;DHT22;68292;49.600;8.746;2024-01-25T07:51:22;15.30;54.80
28548;DHT22;68292;49.600;8.746;2024-01-25T07:53:55;15.30;54.80
28548;DHT22;68292;49.600;8.746;2024-01-25T07:56:24;15.30;54.90
28548;DHT22;68292;49.600;8.746;2024-01-25T07:58:52;15.30;54.90
28548;DHT22;68292;49.600;8.746;2024-01-25T08:01:22;15.30;54.90
28548;DHT22;68292;49.600;8.746;2024-01-25T08:03:51;15.30;55.00
28548;DHT22;68292;49.600;8.746;2024-01-25T08:06:20;15.30;55.00
28548;DHT22;68292;49.600;8.746;2024-01-25T08:08:49;15.30;55.00
28548;DHT22;68292;49.600;8.746;2024-01-25T08:11:18;15.30;55.00
28548;DHT22;68292;49.600;8.746;2024-01-25T08:13:47;15.30;55.00
28548;DHT22;68292;49.600;8.746;2024-01-25T08:16:17;15.30;54.90
28548;DHT22;68292;49.600;8.746;2024-01-25T08:18:49;15.30;54.90
28548;DHT22;68292;49.600;8.746;2024-01-25T08:21:18;15.30;54.90
28548;DHT22;68292;49.600;8.746;2024-01-25T08:23:47;15.30;54.90
28548;DHT22;68292;49.600;8.746;2024-01-25T08:26:15;15.30;55.00
28548;DHT22;68292;49.600;8.746;2024-01-25T08:28:44;15.30;55.00
28548;DHT22;68292;49.600;8.746;2024-01-25T08:31:14;15.30;55.00
28548;DHT22;68292;49.600;8.746;2024-01-25T08:33:43;15.30;55.10
28548;DHT22;68292;49.600;8.746;2024-01-25T08:36:18;15.40;55.20
28548;DHT22;68292;49.600;8.746;2024-01-25T08:38:47;15.40;55.30
28548;DHT22;68292;49.600;8.746;2024-01-25T08:41:16;15.40;55.20
28548;DHT22;68292;49.600;8.746;2024-01-25T08:43:45;15.40;55.30
28548;DHT22;68292;49.600;8.746;2024-01-25T08:46:14;15.40;55.30
28548;DHT22;68292;49.600;8.746;2024-01-25T08:48:44;15.40;55.30
28548;DHT22;68292;49.600;8.746;2024-01-25T08:51:13;15.50;55.30
28548;DHT22;68292;49.600;8.746;2024-01-25T08:53:43;15.50;55.30
28548;DHT22;68292;49.600;8.746;2024-01-25T08:56:12;15.50;55.30
28548;DHT22;68292;49.600;8.746;2024-01-25T08:58:41;15.50;55.20
28548;DHT22;68292;49.600;8.746;2024-01-25T09:01:10;15.50;55.20
28548;DHT22;68292;49.600;8.746;2024-01-25T09:03:38;15.60;55.20
28548;DHT22;68292;49.600;8.746;2024-01-25T09:06:07;15.60;55.20
28548;DHT22;68292;49.600;8.746;2024-01-25T09:08:36;15.60;55.20
28548;DHT22;68292;49.600;8.746;2024-01-25T09:11:07;15.60;55.90
28548;DHT22;68292;49.600;8.746;2024-01-25T09:13:36;15.60;55.30
28548;DHT22;68292;49.600;8.746;2024-01-25T09:16:12;15.60;55.40
28548;DHT22;68292;49.600;8.746;2024-01-25T09:18:41;15.60;55.40
28548;DHT22;68292;49.600;8.746;2024-01-25T09:21:10;15.70;55.50
28548;DHT22;68292;49.600;8.746;2024-01-25T09:23:39;15.70;55.60
28548;DHT22;68292;49.600;8.746;2024-01-25T09:26:09;15.70;55.60
28548;DHT22;68292;49.600;8.746;2024-01-25T09:28:38;15.80;55.60
28548;DHT22;68292;49.600;8.746;2024-01-25T09:31:07;15.80;55.60
28548;DHT22;68292;49.600;8.746;2024-01-25T09:33:36;15.90;55.60
28548;DHT22;68292;49.600;8.746;2024-01-25T09:36:06;15.90;55.60
28548;DHT22;68292;49.600;8.746;2024-01-25T09:38:35;15.90;55.60
28548;DHT22;68292;49.600;8.746;2024-01-25T09:41:04;16.00;55.60
28548;DHT22;68292;49.600;8.746;2024-01-25T09:43:35;16.00;55.50
28548;DHT22;68292;49.600;8.746;2024-01-25T09:46:05;16.10;55.50
28548;DHT22;68292;49.600;8.746;2024-01-25T09:48:35;16.10;55.40
28548;DHT22;68292;49.600;8.746;2024-01-25T09:51:05;16.20;55.40
28548;DHT22;68292;49.600;8.746;2024-01-25T09:53:34;16.20;55.40
28548;DHT22;68292;49.600;8.746;2024-01-25T09:56:06;16.30;55.40
28548;DHT22;68292;49.600;8.746;2024-01-25T09:58:39;16.30;55.30
28548;DHT22;68292;49.600;8.746;2024-01-25T10:01:10;16.30;55.20
28548;DHT22;68292;49.600;8.746;2024-01-25T10:03:42;16.40;55.20
28548;DHT22;68292;49.600;8.746;2024-01-25T10:06:12;16.40;55.10
28548;DHT22;68292;49.600;8.746;2024-01-25T10:08:41;16.40;55.20
28548;DHT22;68292;49.600;8.746;2024-01-25T10:11:10;16.40;55.10
28548;DHT22;68292;49.600;8.746;2024-01-25T10:13:44;16.50;55.20
28548;DHT22;68292;49.600;8.746;2024-01-25T10:16:15;16.50;55.10
28548;DHT22;68292;49.600;8.746;2024-01-25T10:18:46;16.50;55.20
28548;DHT22;68292;49.600;8.746;2024-01-25T10:21:17;16.50;55.20
28548;DHT22;68292;49.600;8.746;2024-01-25T10:23:48;16.60;55.30
28548;DHT22;68292;49.600;8.746;2024-01-25T10:26:19;16.60;55.30
28548;DHT22;68292;49.600;8.746;2024-01-25T10:28:52;16.60;55.10
28548;DHT22;68292;49.600;8.746;2024-01-25T10:31:28;16.70;55.10
28548;DHT22;68292;49.600;8.746;2024-01-25T10:33:59;16.70;55.10
28548;DHT22;68292;49.600;8.746;2024-01-25T10:36:29;16.70;55.00
28548;DHT22;68292;49.600;8.746;2024-01-25T10:39:00;16.70;55.00
28548;DHT22;68292;49.600;8.746;2024-01-25T10:41:32;16.80;55.00
28548;DHT22;68292;49.600;8.746;2024-01-25T10:44:04;16.80;55.00
28548;DHT22;68292;49.600;8.746;2024-01-25T10:46:35;16.80;54.90
28548;DHT22;68292;49.600;8.746;2024-01-25T10:49:07;16.80;54.80
28548;DHT22;68292;49.600;8.746;2024-01-25T10:51:37;16.90;54.60
28548;DHT22;68292;49.600;8.746;2024-01-25T10:54:07;16.90;54.70
28548;DHT22;68292;49.600;8.746;2024-01-25T10:56:36;16.90;54.60
28548;DHT22;68292;49.600;8.746;2024-01-25T10:59:06;17.00;54.60
28548;DHT22;68292;49.600;8.746;2024-01-25T11:01:35;17.00;54.50
28548;DHT22;68292;49.600;8.746;2024-01-25T11:04:12;17.00;54.40
28548;DHT22;68292;49.600;8.746;2024-01-25T11:06:42;17.00;54.00
28548;DHT22;68292;49.600;8.746;2024-01-25T11:09:17;17.00;54.10
28548;DHT22;68292;49.600;8.746;2024-01-25T11:11:48;17.10;53.80
28548;DHT22;68292;49.600;8.746;2024-01-25T11:14:25;17.10;53.90
28548;DHT22;68292;49.600;8.746;2024-01-25T11:16:54;17.10;53.60
28548;DHT22;68292;49.600;8.746;2024-01-25T11:19:23;17.10;53.70
28548;DHT22;68292;49.600;8.746;2024-01-25T11:21:53;17.10;53.50
28548;DHT22;68292;49.600;8.746;2024-01-25T11:24:23;17.10;53.40
28548;DHT22;68292;49.600;8.746;2024-01-25T11:26:54;17.10;53.30
28548;DHT22;68292;49.600;8.746;2024-01-25T11:29:24;17.10;53.30
28548;DHT22;68292;49.600;8.746;2024-01-25T11:31:54;17.10;53.00
28548;DHT22;68292;49.600;8.746;2024-01-25T11:34:23;17.10;53.80
28548;DHT22;68292;49.600;8.746;2024-01-25T11:36:52;17.20;53.10
28548;DHT22;68292;49.600;8.746;2024-01-25T11:39:21;17.20;53.00
28548;DHT22;68292;49.600;8.746;2024-01-25T11:41:51;17.20;52.90
28548;DHT22;68292;49.600;8.746;2024-01-25T11:44:20;17.20;53.00
28548;DHT22;68292;49.600;8.746;2024-01-25T11:46:55;17.10;52.90
28548;DHT22;68292;49.600;8.746;2024-01-25T11:49:24;17.10;53.20
28548;DHT22;68292;49.600;8.746;2024-01-25T11:51:54;17.10;52.80
28548;DHT22;68292;49.600;8.746;2024-01-25T11:54:23;17.10;52.80
28548;DHT22;68292;49.600;8.746;2024-01-25T11:56:53;17.10;52.90
28548;DHT22;68292;49.600;8.746;2024-01-25T11:59:22;17.10;52.90
28548;DHT22;68292;49.600;8.746;2024-01-25T12:01:51;17.10;52.90
28548;DHT22;68292;49.600;8.746;2024-01-25T12:04:22;17.10;52.60
28548;DHT22;68292;49.600;8.746;2024-01-25T12:06:53;17.10;52.60
28548;DHT22;68292;49.600;8.746;2024-01-25T12:09:22;17.10;52.70
28548;DHT22;68292;49.600;8.746;2024-01-25T12:11:51;17.10;52.80
28548;DHT22;68292;49.600;8.746;2024-01-25T12:14:20;17.10;52.80
28548;DHT22;68292;49.600;8.746;2024-01-25T12:16:49;17.10;52.70
28548;DHT22;68292;49.600;8.746;2024-01-25T12:19:18;17.10;52.80
28548;DHT22;68292;49.600;8.746;2024-01-25T12:21:50;17.10;52.70
28548;DHT22;68292;49.600;8.746;2024-01-25T12:24:19;17.10;52.80
28548;DHT22;68292;49.600;8.746;2024-01-25T12:26:48;17.10;52.80
28548;DHT22;68292;49.600;8.746;2024-01-25T12:29:17;17.10;52.80
28548;DHT22;68292;49.600;8.746;2024-01-25T12:31:46;17.10;52.70
28548;DHT22;68292;49.600;8.746;2024-01-25T12:34:14;17.10;52.70
28548;DHT22;68292;49.600;8.746;2024-01-25T12:36:45;17.10;52.40
28548;DHT22;68292;49.600;8.746;2024-01-25T12:39:14;17.10;52.40
28548;DHT22;68292;49.600;8.746;2024-01-25T12:41:47;17.10;52.30
28548;DHT22;68292;49.600;8.746;2024-01-25T12:44:18;17.10;53.00
28548;DHT22;68292;49.600;8.746;2024-01-25T12:46:47;17.10;52.40
28548;DHT22;68292;49.600;8.746;2024-01-25T12:49:16;17.10;52.40
28548;DHT22;68292;49.600;8.746;2024-01-25T12:51:47;17.10;52.30
28548;DHT22;68292;49.600;8.746;2024-01-25T12:54:20;17.10;52.20
28548;DHT22;68292;49.600;8.746;2024-01-25T12:56:49;17.10;52.30
28548;DHT22;68292;49.600;8.746;2024-01-25T12:59:19;17.10;52.30
28548;DHT22;68292;49.600;8.746;2024-01-25T13:01:47;17.10;52.40
28548;DHT22;68292;49.600;8.746;2024-01-25T13:04:16;17.10;52.40
28548;DHT22;68292;49.600;8.746;2024-01-25T13:06:47;17.00;52.30
28548;DHT22;68292;49.600;8.746;2024-01-25T13:09:15;17.00;52.20
28548;DHT22;68292;49.600;8.746;2024-01-25T13:11:44;17.00;52.30
28548;DHT22;68292;49.600;8.746;2024-01-25T13:14:13;17.00;52.20
28548;DHT22;68292;49.600;8.746;2024-01-25T13:16:42;17.00;52.20
28548;DHT22;68292;49.600;8.746;2024-01-25T13:19:11;17.00;52.20
28548;DHT22;68292;49.600;8.746;2024-01-25T13:21:41;17.00;52.30
28548;DHT22;68292;49.600;8.746;2024-01-25T13:24:11;16.90;52.10
28548;DHT22;68292;49.600;8.746;2024-01-25T13:26:40;16.90;52.10
28548;DHT22;68292;49.600;8.746;2024-01-25T13:29:08;17.00;52.20
28548;DHT22;68292;49.600;8.746;2024-01-25T13:31:40;16.90;52.10
28548;DHT22;68292;49.600;8.746;2024-01-25T13:34:08;16.90;52.10
28548;DHT22;68292;49.600;8.746;2024-01-25T13:36:37;16.90;52.10
28548;DHT22;68292;49.600;8.746;2024-01-25T13:39:06;16.90;52.10
28548;DHT22;68292;49.600;8.746;2024-01-25T13:41:38;16.90;52.20
28548;DHT22;68292;49.600;8.746;2024-01-25T13:44:07;16.90;52.20
28548;DHT22;68292;49.600;8.746;2024-01-25T13:46:36;16.90;52.30
28548;DHT22;68292;49.600;8.746;2024-01-25T13:49:04;16.90;52.30
28548;DHT22;68292;49.600;8.746;2024-01-25T13:51:33;16.90;52.30
28548;DHT22;68292;49.600;8.746;2024-01-25T13:54:03;16.90;52.30
28548;DHT22;68292;49.600;8.746;2024-01-25T13:56:31;16.90;52.30
28548;DHT22;68292;49.600;8.746;2024-01-25T13:59:01;16.90;52.20
28548;DHT22;68292;49.600;8.746;2024-01-25T14:01:30;16.90;52.30
28548;DHT22;68292;49.600;8.746;2024-01-25T14:03:59;16.90;52.30
28548;DHT22;68292;49.600;8.746;2024-01-25T14:06:28;16.90;52.40
28548;DHT22;68292;49.600;8.746;2024-01-25T14:08:58;16.90;52.40
28548;DHT22;68292;49.600;8.746;2024-01-25T14:11:27;16.90;52.40
28548;DHT22;68292;49.600;8.746;2024-01-25T14:13:55;16.90;52.60
28548;DHT22;68292;49.600;8.746;2024-01-25T14:16:26;16.90;52.60
28548;DHT22;68292;49.600;8.746;2024-01-25T14:18:55;16.90;52.30
28548;DHT22;68292;49.600;8.746;2024-01-25T14:21:25;16.90;52.50
28548;DHT22;68292;49.600;8.746;2024-01-25T14:23:54;16.90;52.60
28548;DHT22;68292;49.600;8.746;2024-01-25T14:26:23;16.90;52.40
28548;DHT22;68292;49.600;8.746;2024-01-25T14:28:51;16.90;52.30
28548;DHT22;68292;49.600;8.746;2024-01-25T14:31:20;16.90;52.30
28548;DHT22;68292;49.600;8.746;2024-01-25T14:33:51;16.90;52.30
28548;DHT22;68292;49.600;8.746;2024-01-25T14:36:20;16.90;52.20
28548;DHT22;68292;49.600;8.746;2024-01-25T14:38:48;16.90;52.20
28548;DHT22;68292;49.600;8.746;2024-01-25T14:41:18;16.90;52.20
28548;DHT22;68292;49.600;8.746;2024-01-25T14:43:46;16.90;52.10
28548;DHT22;68292;49.600;8.746;2024-01-25T14:46:16;16.90;52.20
28548;DHT22;68292;49.600;8.746;2024-01-25T14:48:45;16.80;52.10
28548;DHT22;68292;49.600;8.746;2024-01-25T14:51:16;16.80;52.10
28548;DHT22;68292;49.600;8.746;2024-01-25T14:53:44;16.80;52.10
28548;DHT22;68292;49.600;8.746;2024-01-25T14:56:13;16.80;52.10
28548;DHT22;68292;49.600;8.746;2024-01-25T14:58:42;16.80;52.20
28548;DHT22;68292;49.600;8.746;2024-01-25T15:01:13;16.80;52.20
28548;DHT22;68292;49.600;8.746;2024-01-25T15:03:45;16.80;52.20
28548;DHT22;68292;49.600;8.746;2024-01-25T15:06:16;16.80;52.20
28548;DHT22;68292;49.600;8.746;2024-01-25T15:08:45;16.80;52.20
28548;DHT22;68292;49.600;8.746;2024-01-25T15:11:15;16.80;52.20
28548;DHT22;68292;49.600;8.746;2024-01-25T15:13:44;16.80;52.20
28548;DHT22;68292;49.600;8.746;2024-01-25T15:16:13;16.80;52.30
28548;DHT22;68292;49.600;8.746;2024-01-25T15:18:47;16.70;52.20
28548;DHT22;68292;49.600;8.746;2024-01-25T15:21:17;16.80;52.30
28548;DHT22;68292;49.600;8.746;2024-01-25T15:23:46;16.70;52.20
28548;DHT22;68292;49.600;8.746;2024-01-25T15:26:15;16.70;52.40
28548;DHT22;68292;49.600;8.746;2024-01-25T15:28:44;16.70;52.40
28548;DHT22;68292;49.600;8.746;2024-01-25T15:31:15;16.70;52.30
28548;DHT22;68292;49.600;8.746;2024-01-25T15:33:45;16.70;52.40
28548;DHT22;68292;49.600;8.746;2024-01-25T15:36:15;16.70;52.40
28548;DHT22;68292;49.600;8.746;2024-01-25T15:38:47;16.70;52.50
28548;DHT22;68292;49.600;8.746;2024-01-25T15:41:17;16.70;52.50
28548;DHT22;68292;49.600;8.746;2024-01-25T15:43:48;16.70;52.50